sensor_id;sensor_type;location;lat;lon;timestamp;temperature;humidity
15152;DHT22;7676;50.900;6.234;2023-04-15T00:10:31;9.60;99.90
15152;DHT22;7676;50.900;6.234;2023-04-15T00:25:33;10.50;99.90
15152;DHT22;7676;50.900;6.234;2023-04-15T00:40:36;10.80;99.90
15152;DHT22;7676;50.900;6.234;2023-04-15T00:55:39;10.50;99.90
15152;DHT22;7676;50.900;6.234;2023-04-15T01:10:41;10.60;99.90
15152;DHT22;7676;50.900;6.234;2023-04-15T01:25:44;10.40;99.90
15152;DHT22;7676;50.900;6.234;2023-04-15T01:40:48;10.30;99.90
15152;DHT22;7676;50.900;6.234;2023-04-15T01:55:51;9.60;99.90
15152;DHT22;7676;50.900;6.234;2023-04-15T02:10:55;8.00;99.90
15152;DHT22;7676;50.900;6.234;2023-04-15T02:25:59;7.50;99.90
15152;DHT22;7676;50.900;6.234;2023-04-15T02:41:05;7.90;99.90
15152;DHT22;7676;50.900;6.234;2023-04-15T02:56:09;8.90;99.90
15152;DHT22;7676;50.900;6.234;2023-04-15T03:11:14;9.00;99.90
15152;DHT22;7676;50.900;6.234;2023-04-15T03:26:29;8.90;99.90
15152;DHT22;7676;50.900;6.234;2023-04-15T03:41:36;8.50;99.90
15152;DHT22;7676;50.900;6.234;2023-04-15T03:56:38;8.40;99.90
15152;DHT22;7676;50.900;6.234;2023-04-15T04:11:43;8.10;99.90
15152;DHT22;7676;50.900;6.234;2023-04-15T04:26:46;8.30;99.90
15152;DHT22;7676;50.900;6.234;2023-04-15T04:41:50;8.50;99.90
15152;DHT22;7676;50.900;6.234;2023-04-15T04:57:07;7.90;99.90
15152;DHT22;7676;50.900;6.234;2023-04-15T05:12:23;6.60;99.90
15152;DHT22;7676;50.900;6.234;2023-04-15T05:27:26;6.70;99.90
15152;DHT22;7676;50.900;6.234;2023-04-15T05:42:29;8.80;99.90
15152;DHT22;7676;50.900;6.234;2023-04-15T05:57:31;10.00;99.90
15152;DHT22;7676;50.900;6.234;2023-04-15T06:12:34;9.70;99.90
15152;DHT22;7676;50.900;6.234;2023-04-15T06:27:37;9.50;99.90
15152;DHT22;7676;50.900;6.234;2023-04-15T06:42:40;10.00;99.90
15152;DHT22;7676;50.900;6.234;2023-04-15T06:57:43;9.80;99.90
15152;DHT22;7676;50.900;6.234;2023-04-15T07:12:47;9.20;99.90
15152;DHT22;7676;50.900;6.234;2023-04-15T07:27:49;9.60;99.90
15152;DHT22;7676;50.900;6.234;2023-04-15T07:42:52;9.50;99.90
15152;DHT22;7676;50.900;6.234;2023-04-15T07:58:15;9.60;99.90
15152;DHT22;7676;50.900;6.234;2023-04-15T08:13:18;9.70;99.90
15152;DHT22;7676;50.900;6.234;2023-04-15T08:28:21;9.90;99.90
15152;DHT22;7676;50.900;6.234;2023-04-15T08:43:27;10.00;99.90
15152;DHT22;7676;50.900;6.234;2023-04-15T08:58:32;10.40;99.90
15152;DHT22;7676;50.900;6.234;2023-04-15T09:13:34;10.70;99.90
15152;DHT22;7676;50.900;6.234;2023-04-15T09:28:41;10.90;99.90
15152;DHT22;7676;50.900;6.234;2023-04-15T09:43:43;11.30;99.90
15152;DHT22;7676;50.900;6.234;2023-04-15T09:58:55;11.60;99.90
15152;DHT22;7676;50.900;6.234;2023-04-15T10:13:58;11.80;99.90
15152;DHT22;7676;50.900;6.234;2023-04-15T10:29:01;12.20;99.90
15152;DHT22;7676;50.900;6.234;2023-04-15T10:44:05;11.80;99.90
15152;DHT22;7676;50.900;6.234;2023-04-15T10:59:08;11.80;99.90
15152;DHT22;7676;50.900;6.234;2023-04-15T11:14:32;11.90;99.90
15152;DHT22;7676;50.900;6.234;2023-04-15T11:29:55;12.30;99.90
15152;DHT22;7676;50.900;6.234;2023-04-15T11:45:10;12.30;99.90
15152;DHT22;7676;50.900;6.234;2023-04-15T12:00:13;12.00;99.90
15152;DHT22;7676;50.900;6.234;2023-04-15T12:15:21;12.50;99.90
15152;DHT22;7676;50.900;6.234;2023-04-15T12:30:25;12.80;99.90
15152;DHT22;7676;50.900;6.234;2023-04-15T12:45:27;12.70;99.90
15152;DHT22;7676;50.900;6.234;2023-04-15T13:00:33;12.60;99.90
15152;DHT22;7676;50.900;6.234;2023-04-15T13:15:58;12.40;99.90
15152;DHT22;7676;50.900;6.234;2023-04-15T13:31:00;12.70;99.90
15152;DHT22;7676;50.900;6.234;2023-04-15T13:46:03;12.80;99.90
15152;DHT22;7676;50.900;6.234;2023-04-15T14:01:05;12.70;99.90
15152;DHT22;7676;50.900;6.234;2023-04-15T14:16:09;12.20;99.90
15152;DHT22;7676;50.900;6.234;2023-04-15T14:31:11;13.70;99.90
15152;DHT22;7676;50.900;6.234;2023-04-15T14:46:14;12.40;99.90
15152;DHT22;7676;50.900;6.234;2023-04-15T15:01:16;12.50;99.90
15152;DHT22;7676;50.900;6.234;2023-04-15T15:16:19;12.50;99.90
15152;DHT22;7676;50.900;6.234;2023-04-15T15:31:42;12.70;99.90
15152;DHT22;7676;50.900;6.234;2023-04-15T15:46:45;12.50;99.90
15152;DHT22;7676;50.900;6.234;2023-04-15T16:01:51;12.60;99.90
15152;DHT22;7676;50.900;6.234;2023-04-15T16:16:54;12.60;99.90
15152;DHT22;7676;50.900;6.234;2023-04-15T16:32:00;12.50;99.90
15152;DHT22;7676;50.900;6.234;2023-04-15T16:47:02;12.80;99.90
15152;DHT22;7676;50.900;6.234;2023-04-15T17:02:24;12.20;99.90
15152;DHT22;7676;50.900;6.234;2023-04-15T17:17:27;12.50;99.90
15152;DHT22;7676;50.900;6.234;2023-04-15T17:32:38;11.70;99.90
15152;DHT22;7676;50.900;6.234;2023-04-15T17:47:50;11.50;99.90
15152;DHT22;7676;50.900;6.234;2023-04-15T18:02:52;11.10;99.90
15152;DHT22;7676;50.900;6.234;2023-04-15T18:17:56;10.80;99.90
15152;DHT22;7676;50.900;6.234;2023-04-15T18:32:59;10.70;99.90
15152;DHT22;7676;50.900;6.234;2023-04-15T18:48:02;11.10;99.90
15152;DHT22;7676;50.900;6.234;2023-04-15T19:03:05;11.20;99.90
15152;DHT22;7676;50.900;6.234;2023-04-15T19:18:28;10.90;99.90
15152;DHT22;7676;50.900;6.234;2023-04-15T19:33:33;10.30;99.90
15152;DHT22;7676;50.900;6.234;2023-04-15T19:48:37;10.00;99.90
15152;DHT22;7676;50.900;6.234;2023-04-15T20:03:40;9.80;99.90
15152;DHT22;7676;50.900;6.234;2023-04-15T20:18:43;9.80;99.90
15152;DHT22;7676;50.900;6.234;2023-04-15T20:33:45;9.30;99.90
15152;DHT22;7676;50.900;6.234;2023-04-15T20:48:49;9.20;99.90
15152;DHT22;7676;50.900;6.234;2023-04-15T21:03:52;9.10;99.90
15152;DHT22;7676;50.900;6.234;2023-04-15T21:18:57;8.80;99.90
15152;DHT22;7676;50.900;6.234;2023-04-15T21:33:59;9.60;99.90
15152;DHT22;7676;50.900;6.234;2023-04-15T21:49:02;9.00;99.90
15152;DHT22;7676;50.900;6.234;2023-04-15T22:04:06;9.20;99.90
15152;DHT22;7676;50.900;6.234;2023-04-15T22:19:27;9.40;99.90
15152;DHT22;7676;50.900;6.234;2023-04-15T22:34:50;9.20;99.90
15152;DHT22;7676;50.900;6.234;2023-04-15T22:50:07;9.90;99.90
15152;DHT22;7676;50.900;6.234;2023-04-15T23:05:12;10.10;99.90
15152;DHT22;7676;50.900;6.234;2023-04-15T23:20:14;10.10;99.90
15152;DHT22;7676;50.900;6.234;2023-04-15T23:35:17;10.30;99.90
15152;DHT22;7676;50.900;6.234;2023-04-15T23:50:20;10.20;99.90
